Time;durP1;ratioP1;P1;durP2;ratioP2;P2;SDS_P1;SDS_P2;PMS_P1;PMS_P2;Temp;Humidity;BMP_temperature;BMP_pressure;BME280_temperature;BME280_humidity;BME280_pressure;Samples;Min_cycle;Max_cycle;Signal;HPM_P1;HPM_P2
2022/06/13 00:01:28;;;;;;;7.43;3.73;;;14.20;99.90;;;;;;4811380;29;20213;-59
2022/06/13 00:03:57;;;;;;;10.23;4.10;;;14.20;99.90;;;;;;4816673;29;20233;-58
2022/06/13 00:06:27;;;;;;;9.20;4.37;;;14.10;99.90;;;;;;4806878;29;20610;-58
2022/06/13 00:08:55;;;;;;;14.03;4.70;;;14.10;99.90;;;;;;4812723;29;20279;-59
2022/06/13 00:11:26;;;;;;;18.53;4.67;;;14.00;99.90;;;;;;4808675;29;20733;-58
2022/06/13 00:13:57;;;;;;;12.93;4.57;;;14.10;99.90;;;;;;4805424;29;20237;-58
2022/06/13 00:16:27;;;;;;;12.73;5.10;;;14.10;99.90;;;;;;4803894;29;20712;-58
2022/06/13 00:18:56;;;;;;;9.30;4.50;;;14.10;99.90;;;;;;4811554;29;20554;-58
2022/06/13 00:21:28;;;;;;;15.93;4.80;;;14.00;99.90;;;;;;4808643;29;20721;-58
2022/06/13 00:23:57;;;;;;;10.60;4.57;;;14.00;99.90;;;;;;4808782;29;20636;-58
2022/06/13 00:26:28;;;;;;;13.10;4.60;;;14.00;99.90;;;;;;4812039;29;20208;-58
2022/06/13 00:28:56;;;;;;;12.63;4.40;;;14.10;99.90;;;;;;4807387;29;20292;-58
2022/06/13 00:31:25;;;;;;;14.47;4.43;;;14.10;99.90;;;;;;4791297;29;20209;-58
2022/06/13 00:33:54;;;;;;;19.27;5.03;;;14.10;99.90;;;;;;4811378;29;20197;-59
2022/06/13 00:36:23;;;;;;;11.87;4.30;;;14.10;99.90;;;;;;4813250;29;20237;-58
2022/06/13 00:38:55;;;;;;;11.30;4.30;;;14.10;99.90;;;;;;4814738;29;20250;-58
2022/06/13 00:41:26;;;;;;;11.67;4.57;;;14.10;99.90;;;;;;4795695;29;20238;-58
2022/06/13 00:43:55;;;;;;;15.87;5.17;;;14.10;99.90;;;;;;4809298;29;20312;-58
2022/06/13 00:46:27;;;;;;;15.53;4.37;;;14.10;99.90;;;;;;4796108;29;20201;-59
2022/06/13 00:48:59;;;;;;;7.97;4.37;;;14.10;99.90;;;;;;4799029;29;20229;-60
2022/06/13 00:51:31;;;;;;;10.13;4.80;;;14.10;99.90;;;;;;4803505;29;20288;-58
2022/06/13 00:54:01;;;;;;;17.90;4.63;;;14.20;99.90;;;;;;4796913;29;20198;-59
2022/06/13 00:56:33;;;;;;;10.60;4.83;;;14.20;99.90;;;;;;4805674;29;20216;-59
2022/06/13 00:59:05;;;;;;;15.37;4.70;;;14.20;99.90;;;;;;4807146;29;20623;-59
2022/06/13 01:01:34;;;;;;;19.03;4.73;;;14.30;99.90;;;;;;4812594;29;20236;-59
2022/06/13 01:04:06;;;;;;;21.23;5.27;;;14.30;99.90;;;;;;4786520;29;20608;-58
2022/06/13 01:06:38;;;;;;;14.43;5.10;;;14.30;99.90;;;;;;4788913;29;20225;-59
2022/06/13 01:09:10;;;;;;;19.87;5.47;;;14.40;99.90;;;;;;4809335;29;20689;-58
2022/06/13 01:11:53;;;;;;;11.83;4.43;;;14.40;99.90;;;;;;4812790;29;20647;-58
2022/06/13 01:14:52;;;;;;;11.47;4.43;;;14.40;99.90;;;;;;4809408;29;20781;-59
2022/06/13 01:17:42;;;;;;;16.37;5.03;;;14.40;99.90;;;;;;4810464;29;20209;-58
2022/06/13 01:20:26;;;;;;;15.70;5.10;;;14.40;99.90;;;;;;4803741;29;20259;-58
2022/06/13 01:23:21;;;;;;;16.90;5.70;;;14.40;99.90;;;;;;4801532;29;20324;-58
2022/06/13 01:26:34;;;;;;;14.03;5.13;;;14.40;99.90;;;;;;4812224;29;20205;-58
2022/06/13 01:29:18;;;;;;;18.03;4.90;;;14.30;99.90;;;;;;4805857;29;20217;-58
2022/06/13 01:31:53;;;;;;;17.00;5.87;;;14.30;99.90;;;;;;4811916;29;20896;-58
2022/06/13 01:34:30;;;;;;;14.13;5.50;;;14.30;99.90;;;;;;4810256;29;20202;-58
2022/06/13 01:37:11;;;;;;;13.50;5.23;;;14.30;99.90;;;;;;4806650;29;20204;-58
2022/06/13 01:39:55;;;;;;;15.00;5.30;;;14.30;99.90;;;;;;4808308;29;20259;-59
2022/06/13 01:42:35;;;;;;;17.60;5.40;;;14.30;99.90;;;;;;4811781;29;20200;-58
2022/06/13 01:45:11;;;;;;;13.97;5.10;;;14.30;99.90;;;;;;4807901;29;20670;-59
2022/06/13 01:47:53;;;;;;;17.47;5.37;;;14.30;99.90;;;;;;4808371;29;20292;-58
2022/06/13 01:50:30;;;;;;;18.07;5.13;;;14.30;99.90;;;;;;4807134;29;20273;-58
2022/06/13 01:53:06;;;;;;;19.40;5.93;;;14.30;99.90;;;;;;4805461;29;20193;-58
2022/06/13 01:55:44;;;;;;;15.53;5.20;;;14.30;99.90;;;;;;4814948;29;20209;-58
2022/06/13 01:58:20;;;;;;;14.67;4.77;;;14.30;99.90;;;;;;4807919;29;20284;-58
2022/06/13 02:00:54;;;;;;;20.33;5.70;;;14.30;99.90;;;;;;4808199;29;20236;-58
2022/06/13 02:03:29;;;;;;;22.17;5.53;;;14.30;99.90;;;;;;4811595;29;20218;-58
2022/06/13 02:06:05;;;;;;;11.53;5.73;;;14.30;99.90;;;;;;4797079;29;20197;-58
2022/06/13 02:08:36;;;;;;;17.63;5.83;;;14.30;99.90;;;;;;4805225;29;20208;-58
2022/06/13 02:11:11;;;;;;;20.83;5.97;;;14.30;99.90;;;;;;4790155;29;20201;-58
2022/06/13 02:13:44;;;;;;;18.23;5.87;;;14.30;99.90;;;;;;4812260;29;20256;-59
2022/06/13 02:16:17;;;;;;;22.10;5.97;;;14.30;99.90;;;;;;4802679;29;20214;-58
2022/06/13 02:18:57;;;;;;;25.07;6.40;;;14.30;99.90;;;;;;4804740;29;20631;-58
2022/06/13 02:21:33;;;;;;;19.73;6.10;;;14.30;99.90;;;;;;4787332;29;20216;-58
2022/06/13 02:24:08;;;;;;;20.50;5.80;;;14.20;99.90;;;;;;4805843;29;20225;-58
2022/06/13 02:26:38;;;;;;;17.03;5.60;;;14.20;99.90;;;;;;4805801;29;20258;-58
2022/06/13 02:29:10;;;;;;;16.67;5.90;;;14.20;99.90;;;;;;4804770;29;20288;-58
2022/06/13 02:31:44;;;;;;;18.40;6.33;;;14.20;99.90;;;;;;4809466;29;20283;-58
2022/06/13 02:34:19;;;;;;;20.17;6.60;;;14.20;99.90;;;;;;4813774;29;20202;-58
2022/06/13 02:36:55;;;;;;;14.27;5.10;;;14.20;99.90;;;;;;4803778;29;20220;-58
2022/06/13 02:39:28;;;;;;;19.27;6.07;;;14.10;99.90;;;;;;4810043;29;20291;-58
2022/06/13 02:42:01;;;;;;;20.00;6.07;;;14.10;99.90;;;;;;4808797;29;20262;-58
2022/06/13 02:44:34;;;;;;;19.23;6.27;;;14.10;99.90;;;;;;4812103;29;20546;-58
2022/06/13 02:47:09;;;;;;;20.20;5.90;;;14.10;99.90;;;;;;4806723;29;20270;-59
2022/06/13 02:49:43;;;;;;;22.53;5.77;;;14.00;99.90;;;;;;4788973;29;20227;-59
2022/06/13 02:52:20;;;;;;;18.60;6.00;;;14.00;99.90;;;;;;4805354;29;20212;-58
2022/06/13 02:54:52;;;;;;;19.77;5.67;;;14.00;99.90;;;;;;4806650;29;20205;-58
2022/06/13 02:57:37;;;;;;;16.70;5.50;;;14.00;99.90;;;;;;4807684;29;20209;-59
2022/06/13 03:00:26;;;;;;;25.13;5.80;;;13.90;99.90;;;;;;4792952;29;20221;-59
2022/06/13 03:03:08;;;;;;;16.47;5.93;;;13.90;99.90;;;;;;4804638;29;20677;-59
2022/06/13 03:05:57;;;;;;;15.70;5.70;;;13.90;99.90;;;;;;4801076;29;20708;-59
2022/06/13 03:08:47;;;;;;;16.57;6.17;;;13.90;99.90;;;;;;4811823;29;20561;-59
2022/06/13 03:11:30;;;;;;;16.63;5.63;;;13.90;99.90;;;;;;4805458;29;20281;-58
2022/06/13 03:14:15;;;;;;;19.80;5.87;;;13.90;99.90;;;;;;4806648;29;20605;-58
2022/06/13 03:16:53;;;;;;;20.13;6.17;;;13.80;99.90;;;;;;4806738;29;20313;-58
2022/06/13 03:19:26;;;;;;;17.47;5.87;;;13.80;99.90;;;;;;4811753;29;20201;-59
2022/06/13 03:22:06;;;;;;;15.33;6.30;;;13.80;99.90;;;;;;4808617;29;20204;-59
2022/06/13 03:24:43;;;;;;;20.90;6.03;;;13.80;99.90;;;;;;4808861;29;20243;-59
2022/06/13 03:27:18;;;;;;;23.70;7.00;;;13.70;99.90;;;;;;4805984;29;20280;-58
2022/06/13 03:29:52;;;;;;;18.23;5.33;;;13.70;99.90;;;;;;4802839;29;20657;-58
2022/06/13 03:32:25;;;;;;;18.00;5.90;;;13.80;99.90;;;;;;4807510;29;20282;-58
2022/06/13 03:34:59;;;;;;;24.53;6.27;;;13.80;99.90;;;;;;4795678;29;20209;-59
2022/06/13 03:37:36;;;;;;;14.80;6.20;;;13.80;99.90;;;;;;4812436;29;20202;-59
2022/06/13 03:40:08;;;;;;;14.50;5.40;;;13.80;99.90;;;;;;4811828;29;20746;-59
2022/06/13 03:42:44;;;;;;;17.90;5.90;;;13.80;99.90;;;;;;4813128;29;20207;-59
2022/06/13 03:45:24;;;;;;;20.73;5.90;;;13.70;99.90;;;;;;4810538;29;20216;-59
2022/06/13 03:47:59;;;;;;;16.13;6.40;;;13.70;99.90;;;;;;4805524;29;20197;-59
2022/06/13 03:50:33;;;;;;;17.00;5.50;;;13.70;99.90;;;;;;4805344;29;20284;-58
2022/06/13 03:53:07;;;;;;;14.60;5.40;;;13.70;99.90;;;;;;4793964;29;20225;-58
2022/06/13 03:55:41;;;;;;;18.43;6.13;;;13.70;99.90;;;;;;4807489;29;20300;-58
2022/06/13 03:58:17;;;;;;;16.73;5.50;;;13.70;99.90;;;;;;4809564;29;21051;-59
2022/06/13 04:00:55;;;;;;;16.30;5.80;;;13.80;99.90;;;;;;4808337;29;20299;-58
2022/06/13 04:03:27;;;;;;;19.47;6.00;;;13.80;99.90;;;;;;4807223;29;20234;-59
2022/06/13 04:05:59;;;;;;;17.23;6.00;;;13.80;99.90;;;;;;4803643;29;20221;-59
2022/06/13 04:08:30;;;;;;;16.33;5.97;;;13.80;99.90;;;;;;4786978;29;20212;-59
2022/06/13 04:11:15;;;;;;;16.63;5.50;;;13.80;99.90;;;;;;4787195;29;20316;-58
2022/06/13 04:14:00;;;;;;;16.90;5.70;;;13.90;99.90;;;;;;4798943;29;20306;-58
2022/06/13 04:16:41;;;;;;;16.63;6.00;;;13.90;99.90;;;;;;4794450;29;20252;-59
2022/06/13 04:19:26;;;;;;;15.93;5.73;;;13.90;99.90;;;;;;4807192;29;20209;-59
2022/06/13 04:22:02;;;;;;;9.93;5.27;;;13.90;99.90;;;;;;4812741;29;20286;-58
2022/06/13 04:24:42;;;;;;;15.50;5.60;;;13.90;99.90;;;;;;4803087;29;20253;-58
2022/06/13 04:27:18;;;;;;;18.83;5.70;;;13.90;99.90;;;;;;4805891;29;20190;-59
2022/06/13 04:29:56;;;;;;;16.00;6.07;;;13.90;99.90;;;;;;4791669;29;20196;-58
2022/06/13 04:32:31;;;;;;;19.43;5.83;;;13.80;99.90;;;;;;4792882;29;20212;-59
2022/06/13 04:35:00;;;;;;;17.80;6.13;;;13.80;99.90;;;;;;4805365;29;20204;-59
2022/06/13 04:37:30;;;;;;;18.73;6.30;;;13.80;99.90;;;;;;4811860;29;20205;-59
2022/06/13 04:40:04;;;;;;;18.40;5.70;;;13.90;99.90;;;;;;4808720;29;20251;-59
2022/06/13 04:42:37;;;;;;;15.10;5.63;;;13.90;99.90;;;;;;4808064;29;20213;-58
2022/06/13 04:45:15;;;;;;;22.20;6.30;;;13.90;99.90;;;;;;4812406;29;20343;-58
2022/06/13 04:47:44;;;;;;;19.17;6.87;;;13.90;99.90;;;;;;4811813;29;20201;-58
2022/06/13 04:50:16;;;;;;;17.07;6.00;;;13.90;99.90;;;;;;4796993;29;20202;-58
2022/06/13 04:52:49;;;;;;;15.07;5.53;;;13.90;99.90;;;;;;4814685;29;20273;-58
2022/06/13 04:55:24;;;;;;;18.77;5.83;;;14.00;99.90;;;;;;4809851;29;20288;-58
2022/06/13 04:57:52;;;;;;;15.23;5.47;;;14.00;99.90;;;;;;4794384;29;20657;-59
2022/06/13 05:00:22;;;;;;;14.37;5.70;;;14.00;99.90;;;;;;4806230;29;20225;-59
2022/06/13 05:02:56;;;;;;;14.30;6.20;;;14.10;99.90;;;;;;4818645;29;20879;-59
2022/06/13 05:05:36;;;;;;;22.83;5.73;;;14.10;99.90;;;;;;4794065;29;20300;-59
2022/06/13 05:08:12;;;;;;;18.53;5.80;;;14.10;99.90;;;;;;4810158;29;20791;-59
2022/06/13 05:10:48;;;;;;;14.57;6.30;;;14.20;99.90;;;;;;4809464;29;20242;-58
2022/06/13 05:13:18;;;;;;;17.70;5.33;;;14.20;99.90;;;;;;4803029;29;20268;-58
2022/06/13 05:15:53;;;;;;;23.20;6.23;;;14.30;99.90;;;;;;4812104;29;20289;-58
2022/06/13 05:18:59;;;;;;;18.67;5.43;;;14.40;99.90;;;;;;4807830;29;20654;-58
2022/06/13 05:21:42;;;;;;;10.17;5.27;;;14.40;99.90;;;;;;4785994;29;20688;-58
2022/06/13 05:24:28;;;;;;;18.23;5.70;;;14.50;99.90;;;;;;4809579;29;20582;-58
2022/06/13 05:26:58;;;;;;;12.47;5.17;;;14.50;99.90;;;;;;4806770;29;20631;-58
2022/06/13 05:29:28;;;;;;;14.00;5.33;;;14.50;99.90;;;;;;4811061;29;20212;-58
2022/06/13 05:31:56;;;;;;;14.10;5.57;;;14.60;99.90;;;;;;4810894;29;20205;-58
2022/06/13 05:34:35;;;;;;;16.53;5.27;;;14.60;99.90;;;;;;4804255;29;20314;-58
2022/06/13 05:37:04;;;;;;;17.10;4.90;;;14.70;99.90;;;;;;4807748;29;20195;-58
2022/06/13 05:39:35;;;;;;;13.57;4.77;;;14.90;99.90;;;;;;4806501;29;20749;-58
2022/06/13 05:42:05;;;;;;;13.17;4.63;;;15.00;99.90;;;;;;4805940;29;20221;-59
2022/06/13 05:44:36;;;;;;;10.50;4.83;;;15.10;99.90;;;;;;4802722;29;20224;-58
2022/06/13 05:47:05;;;;;;;13.50;5.03;;;15.20;99.90;;;;;;4796672;29;20226;-58
2022/06/13 05:49:33;;;;;;;11.47;4.80;;;15.20;99.90;;;;;;4805025;29;20261;-59
2022/06/13 05:52:02;;;;;;;16.90;5.10;;;15.20;99.90;;;;;;4809003;29;20208;-58
2022/06/13 05:54:30;;;;;;;9.80;4.50;;;15.20;99.90;;;;;;4816947;29;20213;-58
2022/06/13 05:56:58;;;;;;;11.77;4.30;;;15.40;99.90;;;;;;4807064;29;20710;-58
2022/06/13 05:59:28;;;;;;;11.97;4.20;;;15.40;99.90;;;;;;4823935;29;20229;-59
2022/06/13 06:01:56;;;;;;;14.13;4.33;;;15.60;99.90;;;;;;4805329;29;20213;-59
2022/06/13 06:04:25;;;;;;;11.07;4.10;;;15.70;99.90;;;;;;4813362;29;20217;-59
2022/06/13 06:06:56;;;;;;;11.17;3.70;;;15.80;99.90;;;;;;4814353;29;20224;-59
2022/06/13 06:09:25;;;;;;;7.73;4.00;;;15.80;99.90;;;;;;4818838;29;20226;-59
2022/06/13 06:11:53;;;;;;;8.30;3.97;;;16.00;99.90;;;;;;4789239;29;20232;-59
2022/06/13 06:14:22;;;;;;;14.70;4.50;;;16.20;99.90;;;;;;4796039;29;20249;-59
2022/06/13 06:16:51;;;;;;;7.63;3.50;;;16.30;99.90;;;;;;4814559;29;20232;-59
2022/06/13 06:19:20;;;;;;;9.07;3.97;;;16.40;99.90;;;;;;4801531;29;20210;-58
2022/06/13 06:21:48;;;;;;;9.07;3.53;;;16.50;99.90;;;;;;4806539;29;20264;-59
2022/06/13 06:24:17;;;;;;;7.73;3.60;;;16.50;99.90;;;;;;4814398;29;20241;-59
2022/06/13 06:26:45;;;;;;;13.67;3.53;;;16.70;99.90;;;;;;4803925;29;20233;-58
2022/06/13 06:29:14;;;;;;;13.93;4.00;;;16.80;99.90;;;;;;4808535;29;20225;-59
2022/06/13 06:31:43;;;;;;;12.20;4.60;;;16.80;99.90;;;;;;4804379;29;20202;-59
2022/06/13 06:34:13;;;;;;;14.73;4.10;;;16.90;99.90;;;;;;4794943;29;20251;-59
2022/06/13 06:36:41;;;;;;;11.30;3.53;;;17.00;99.90;;;;;;4803269;29;20703;-58
2022/06/13 06:39:10;;;;;;;11.53;3.83;;;17.10;99.90;;;;;;4807111;29;20223;-59
2022/06/13 06:41:38;;;;;;;12.67;3.77;;;17.10;99.90;;;;;;4804180;29;20213;-59
2022/06/13 06:44:07;;;;;;;8.63;3.73;;;17.00;99.90;;;;;;4803569;29;20677;-59
2022/06/13 06:46:35;;;;;;;10.90;4.07;;;17.10;99.90;;;;;;4811703;29;20257;-59
2022/06/13 06:49:04;;;;;;;8.87;3.33;;;17.20;99.90;;;;;;4786001;29;20267;-59
2022/06/13 06:51:34;;;;;;;6.10;3.17;;;17.30;99.90;;;;;;4802437;29;20282;-59
2022/06/13 07:02:23;;;;;;;7.00;3.00;;;17.30;99.90;;;;;;4792261;29;20233;-59
2022/06/13 07:04:53;;;;;;;11.27;3.47;;;17.40;99.90;;;;;;4787277;29;20223;-60
2022/06/13 07:07:23;;;;;;;13.80;3.53;;;17.40;99.90;;;;;;4804352;29;20252;-59
2022/06/13 07:09:52;;;;;;;7.90;3.30;;;17.40;99.90;;;;;;4805936;29;20209;-59
2022/06/13 07:12:21;;;;;;;8.60;3.33;;;17.50;99.90;;;;;;4786659;29;20825;-59
2022/06/13 07:14:50;;;;;;;9.40;3.83;;;17.60;99.90;;;;;;4802685;29;20241;-59
2022/06/13 07:17:20;;;;;;;11.57;3.47;;;17.60;99.90;;;;;;4806416;29;20263;-60
2022/06/13 07:19:48;;;;;;;18.20;4.13;;;17.60;99.90;;;;;;4802014;29;20221;-59
2022/06/13 07:22:20;;;;;;;7.17;4.00;;;17.60;99.90;;;;;;4792677;29;20239;-59
2022/06/13 07:24:51;;;;;;;8.77;3.47;;;17.70;99.90;;;;;;4799187;29;20209;-59
2022/06/13 07:27:19;;;;;;;9.40;3.20;;;17.70;99.90;;;;;;4817704;29;20215;-59
2022/06/13 07:29:48;;;;;;;5.57;2.90;;;17.70;99.90;;;;;;4814482;29;20237;-59
2022/06/13 07:32:19;;;;;;;11.10;3.27;;;17.60;99.90;;;;;;4809837;29;20213;-60
2022/06/13 07:34:50;;;;;;;9.27;3.33;;;17.60;99.90;;;;;;4811494;29;20290;-59
2022/06/13 07:40:08;;;;;;;8.27;2.80;;;17.70;99.90;;;;;;4801998;29;20217;-59
2022/06/13 07:42:40;;;;;;;8.87;2.97;;;17.80;99.90;;;;;;4803468;29;20831;-59
2022/06/13 07:45:13;;;;;;;7.83;2.77;;;18.00;99.90;;;;;;4805115;29;20252;-59
2022/06/13 07:48:02;;;;;;;7.13;3.00;;;18.30;99.90;;;;;;4806454;29;20235;-59
2022/06/13 07:50:31;;;;;;;6.83;2.83;;;18.30;99.90;;;;;;4789634;29;20213;-59
2022/06/13 07:52:59;;;;;;;6.93;2.90;;;18.20;99.90;;;;;;4806803;29;20212;-59
2022/06/13 07:55:32;;;;;;;10.27;2.97;;;18.10;99.90;;;;;;4788921;29;20274;-59
2022/06/13 07:58:01;;;;;;;4.97;2.53;;;18.10;99.90;;;;;;4803904;29;20205;-59
2022/06/13 08:00:33;;;;;;;5.80;2.47;;;18.20;99.90;;;;;;4803274;29;20676;-59
2022/06/13 08:03:02;;;;;;;5.20;2.40;;;18.50;99.90;;;;;;4802453;29;20226;-59
2022/06/13 08:05:31;;;;;;;8.53;2.60;;;18.80;99.90;;;;;;4809768;29;20210;-58
2022/06/13 08:08:00;;;;;;;7.10;2.43;;;18.70;99.90;;;;;;4810194;29;20681;-59
2022/06/13 08:10:30;;;;;;;8.17;2.50;;;18.40;99.90;;;;;;4809501;29;20684;-59
2022/06/13 08:12:59;;;;;;;5.07;2.33;;;18.10;99.90;;;;;;4806986;29;20845;-59
2022/06/13 08:15:27;;;;;;;7.40;2.50;;;18.20;99.90;;;;;;4803976;29;21872;-59
2022/06/13 08:17:56;;;;;;;5.47;2.63;;;18.40;99.90;;;;;;4796664;29;20731;-59
2022/06/13 08:20:25;;;;;;;6.73;2.23;;;18.40;99.90;;;;;;4812134;29;20247;-60
2022/06/13 08:22:58;;;;;;;5.53;2.50;;;18.40;99.90;;;;;;4805038;29;20670;-59
2022/06/13 08:25:29;;;;;;;4.63;2.50;;;18.90;99.90;;;;;;4815760;29;20316;-59
2022/06/13 08:28:00;;;;;;;5.83;2.03;;;19.10;99.90;;;;;;4795518;29;20446;-58
2022/06/13 08:30:37;;;;;;;4.37;1.80;;;19.00;99.90;;;;;;4809680;29;20674;-59
2022/06/13 08:33:06;;;;;;;4.27;1.93;;;19.20;99.90;;;;;;4806360;29;20224;-59
2022/06/13 08:35:35;;;;;;;15.57;2.77;;;19.50;99.90;;;;;;4814219;29;20201;-59
2022/06/13 08:38:04;;;;;;;1.67;1.57;;;19.30;99.90;;;;;;4791357;29;20221;-59
2022/06/13 08:40:40;;;;;;;5.20;2.10;;;19.40;99.90;;;;;;4811157;29;20217;-59
2022/06/13 08:43:24;;;;;;;3.10;1.90;;;19.40;99.90;;;;;;4812406;29;20600;-59
2022/06/13 08:45:58;;;;;;;3.80;1.90;;;19.20;99.90;;;;;;4806010;29;20276;-59
2022/06/13 08:48:35;;;;;;;6.57;2.00;;;19.00;99.90;;;;;;4805453;29;20309;-59
2022/06/13 08:51:09;;;;;;;3.40;1.97;;;18.90;99.90;;;;;;4807524;29;20232;-59
2022/06/13 08:53:47;;;;;;;7.47;1.70;;;18.70;99.90;;;;;;4805149;29;20217;-59
2022/06/13 08:56:19;;;;;;;3.33;1.80;;;19.00;99.90;;;;;;4806408;29;20979;-59
2022/06/13 08:58:53;;;;;;;2.87;1.50;;;19.70;99.90;;;;;;4817559;29;20244;-58
2022/06/13 09:01:29;;;;;;;5.20;1.80;;;20.10;99.90;;;;;;4808160;29;20704;-59
2022/06/13 09:04:08;;;;;;;3.33;1.33;;;20.40;99.90;;;;;;4803748;29;20677;-59
2022/06/13 09:06:41;;;;;;;3.67;1.50;;;20.40;99.90;;;;;;4807855;29;20212;-60
2022/06/13 09:09:17;;;;;;;3.67;1.50;;;20.10;99.90;;;;;;4810007;29;20208;-59
2022/06/13 09:12:10;;;;;;;6.47;1.70;;;20.00;99.90;;;;;;4806578;29;20208;-59
2022/06/13 09:14:46;;;;;;;2.47;1.50;;;20.00;99.90;;;;;;4804614;29;20236;-58
2022/06/13 09:17:20;;;;;;;2.27;1.10;;;20.40;99.90;;;;;;4804984;29;20227;-58
2022/06/13 09:19:56;;;;;;;4.20;1.30;;;20.80;99.90;;;;;;4804626;29;20693;-59
2022/06/13 09:22:31;;;;;;;2.30;1.30;;;20.90;99.90;;;;;;4806852;29;20216;-59
2022/06/13 09:25:07;;;;;;;3.47;1.57;;;20.90;99.90;;;;;;4802259;29;20216;-59
2022/06/13 09:27:40;;;;;;;2.23;1.20;;;20.70;99.90;;;;;;4801829;29;20225;-58
2022/06/13 09:30:13;;;;;;;3.03;1.23;;;20.20;99.90;;;;;;4805431;29;20283;-59
2022/06/13 09:32:46;;;;;;;2.70;1.33;;;20.00;99.90;;;;;;4806980;29;20229;-59
2022/06/13 09:35:21;;;;;;;2.33;1.20;;;20.10;99.90;;;;;;4809235;29;20688;-59
2022/06/13 09:37:53;;;;;;;1.90;1.40;;;20.60;99.90;;;;;;4809418;29;20217;-58
2022/06/13 09:40:32;;;;;;;3.60;1.60;;;20.80;99.90;;;;;;4807639;29;20209;-59
2022/06/13 09:43:15;;;;;;;12.57;2.23;;;21.00;99.90;;;;;;4808230;29;20209;-59
2022/06/13 09:45:57;;;;;;;4.67;1.30;;;21.30;99.90;;;;;;4801209;29;20205;-59
2022/06/13 09:48:40;;;;;;;1.23;1.20;;;22.00;99.90;;;;;;4805445;29;20224;-59
2022/06/13 09:51:17;;;;;;;1.70;1.30;;;21.90;99.90;;;;;;4804616;29;20244;-58
2022/06/13 09:53:57;;;;;;;4.00;1.40;;;21.50;99.90;;;;;;4804495;29;20213;-59
2022/06/13 09:56:32;;;;;;;5.43;1.50;;;21.30;99.90;;;;;;4809388;29;20753;-58
2022/06/13 09:59:15;;;;;;;1.37;1.27;;;21.10;99.90;;;;;;4805370;29;21072;-59
2022/06/13 10:01:49;;;;;;;4.43;1.20;;;20.80;99.90;;;;;;4807881;29;20208;-59
2022/06/13 10:05:08;;;;;;;3.17;1.77;;;20.70;99.90;;;;;;4804386;29;20222;-59
2022/06/13 10:08:25;;;;;;;1.57;1.30;;;20.70;99.90;;;;;;4786520;29;20808;-58
2022/06/13 10:11:22;;;;;;;2.30;1.53;;;20.70;99.90;;;;;;4791959;29;20778;-58
2022/06/13 10:14:06;;;;;;;4.90;1.60;;;21.60;99.90;;;;;;4810161;29;20237;-58
2022/06/13 10:16:47;;;;;;;3.80;1.60;;;22.30;99.90;;;;;;4808698;29;20231;-58
2022/06/13 10:19:24;;;;;;;5.43;1.53;;;22.30;99.90;;;;;;4818089;29;20833;-59
2022/06/13 10:21:58;;;;;;;2.50;1.57;;;22.00;99.90;;;;;;4805856;29;20208;-58
2022/06/13 10:24:38;;;;;;;5.50;1.70;;;21.80;99.90;;;;;;4804471;29;20201;-59
2022/06/13 10:27:21;;;;;;;2.10;1.60;;;21.90;99.90;;;;;;4803913;29;20212;-59
2022/06/13 10:30:14;;;;;;;5.50;1.70;;;22.10;99.90;;;;;;4804250;29;20209;-58
2022/06/13 10:33:02;;;;;;;4.40;1.60;;;22.20;99.90;;;;;;4818117;29;20226;-59
2022/06/13 10:35:45;;;;;;;2.10;1.47;;;22.60;99.90;;;;;;4810090;29;20307;-59
2022/06/13 10:38:30;;;;;;;2.87;1.70;;;23.20;99.90;;;;;;4809845;29;20212;-59
2022/06/13 10:40:59;;;;;;;3.37;1.83;;;23.00;99.90;;;;;;4807216;29;20195;-58
2022/06/13 10:43:28;;;;;;;11.37;1.70;;;22.30;99.90;;;;;;4809135;29;20238;-58
2022/06/13 10:45:56;;;;;;;3.07;1.40;;;21.70;99.90;;;;;;4814148;29;20205;-58
2022/06/13 10:48:31;;;;;;;3.27;1.63;;;21.20;99.90;;;;;;4812632;29;20714;-58
2022/06/13 10:51:01;;;;;;;6.83;1.50;;;21.00;99.90;;;;;;4819353;29;20681;-58
2022/06/13 10:53:41;;;;;;;2.03;1.30;;;21.40;99.90;;;;;;4797219;29;20199;-58
2022/06/13 10:56:14;;;;;;;5.33;1.43;;;22.00;99.90;;;;;;4809005;29;20203;-59
2022/06/13 10:58:49;;;;;;;11.87;2.07;;;22.60;99.90;;;;;;4806941;29;20205;-58
2022/06/13 11:01:20;;;;;;;2.33;1.50;;;22.50;99.90;;;;;;4805152;29;20212;-59
2022/06/13 11:04:03;;;;;;;5.00;1.70;;;22.40;99.90;;;;;;4806213;29;20230;-58
2022/06/13 11:06:40;;;;;;;1.90;1.60;;;22.10;99.90;;;;;;4795603;29;20214;-58
2022/06/13 11:09:23;;;;;;;6.17;1.70;;;21.70;99.90;;;;;;4809107;29;20308;-58
2022/06/13 11:11:56;;;;;;;5.13;1.67;;;21.30;99.90;;;;;;4802257;29;20706;-58
2022/06/13 11:22:37;;;;;;;4.93;1.80;;;21.00;99.90;;;;;;4802704;29;20324;-58
2022/06/13 11:23:07;;;;;;;3.17;1.40;;;23.00;99.90;;;;;;4805849;29;20204;-58
2022/06/13 11:25:37;;;;;;;3.10;1.30;;;23.40;99.90;;;;;;4806435;29;20530;-58
2022/06/13 11:28:09;;;;;;;2.67;1.43;;;23.10;99.90;;;;;;4794294;29;20325;-57
2022/06/13 11:30:46;;;;;;;2.30;1.50;;;22.30;99.90;;;;;;4808507;29;20364;-57
2022/06/13 11:33:29;;;;;;;1.77;1.10;;;21.60;99.90;;;;;;4802225;29;20227;-58
2022/06/13 11:36:02;;;;;;;4.93;1.30;;;21.40;99.90;;;;;;4790281;29;20259;-58
2022/06/13 11:38:32;;;;;;;2.70;1.30;;;21.70;99.90;;;;;;4806950;29;20201;-58
2022/06/13 11:41:16;;;;;;;4.10;1.53;;;21.70;99.90;;;;;;4807148;29;20671;-58
2022/06/13 11:43:52;;;;;;;1.33;1.23;;;21.50;99.90;;;;;;4808522;29;20209;-58
2022/06/13 11:46:43;;;;;;;1.60;1.50;;;21.60;99.90;;;;;;4812855;29;20213;-57
2022/06/13 11:49:36;;;;;;;2.17;1.20;;;22.10;99.90;;;;;;4810181;29;20796;-58
2022/06/13 11:55:22;;;;;;;3.13;1.17;;;22.80;99.90;;;;;;4804723;29;20213;-58
2022/06/13 11:57:54;;;;;;;2.43;1.57;;;23.30;99.90;;;;;;4805014;29;20221;-58
2022/06/13 12:00:37;;;;;;;4.67;1.60;;;23.00;99.90;;;;;;4808192;29;20740;-58
2022/06/13 12:03:14;;;;;;;3.80;1.90;;;22.40;99.90;;;;;;4809047;29;20216;-58
2022/06/13 12:05:43;;;;;;;29.27;3.60;;;21.80;99.90;;;;;;4798119;29;20684;-59
2022/06/13 12:08:25;;;;;;;4.93;1.40;;;21.80;99.90;;;;;;4805854;29;20296;-58
2022/06/13 12:11:00;;;;;;;3.50;1.40;;;22.30;99.90;;;;;;4800155;29;20244;-58
2022/06/13 12:13:31;;;;;;;2.27;1.43;;;22.50;99.90;;;;;;4809303;29;20310;-58
2022/06/13 12:16:12;;;;;;;5.43;1.60;;;22.70;99.90;;;;;;4808605;29;20696;-57
2022/06/13 12:18:50;;;;;;;3.23;1.57;;;22.70;99.90;;;;;;4810729;29;20209;-58
2022/06/13 12:21:26;;;;;;;2.50;1.20;;;23.00;99.90;;;;;;4807991;29;20227;-58
2022/06/13 12:24:03;;;;;;;3.07;1.50;;;22.90;99.90;;;;;;4807448;29;20198;-58
2022/06/13 12:26:34;;;;;;;1.50;1.20;;;23.00;99.90;;;;;;4805534;29;20211;-59
2022/06/13 12:29:16;;;;;;;2.30;1.30;;;23.00;99.90;;;;;;4807005;29;20225;-58
2022/06/13 12:31:51;;;;;;;2.33;1.50;;;23.10;99.90;;;;;;4808619;29;20198;-58
2022/06/13 12:34:26;;;;;;;1.60;1.20;;;23.00;99.90;;;;;;4810291;29;20232;-58
2022/06/13 12:37:13;;;;;;;4.17;1.60;;;22.60;99.90;;;;;;4807903;29;20290;-58
2022/06/13 12:39:59;;;;;;;2.63;1.17;;;22.40;99.90;;;;;;4810395;29;20204;-58
2022/06/13 12:42:58;;;;;;;1.10;1.10;;;22.50;99.90;;;;;;4806187;29;20209;-58
2022/06/13 12:45:45;;;;;;;3.73;1.13;;;22.50;99.90;;;;;;4792566;29;20193;-59
2022/06/13 12:48:28;;;;;;;1.47;1.37;;;22.50;99.90;;;;;;4804539;29;20714;-58
2022/06/13 12:51:11;;;;;;;2.40;1.40;;;22.60;99.90;;;;;;4808165;29;20703;-58
2022/06/13 12:54:08;;;;;;;2.97;1.40;;;22.90;99.90;;;;;;4802772;29;20305;-58
2022/06/13 12:56:43;;;;;;;1.87;1.03;;;23.00;99.90;;;;;;4809799;29;20285;-58
2022/06/13 12:59:25;;;;;;;1.40;1.30;;;22.70;99.90;;;;;;4806892;29;20236;-58
2022/06/13 13:02:07;;;;;;;2.20;1.13;;;22.80;99.90;;;;;;4808360;29;20678;-59
2022/06/13 13:04:58;;;;;;;3.87;1.10;;;22.80;99.90;;;;;;4815664;29;20226;-58
2022/06/13 13:07:37;;;;;;;1.90;1.37;;;22.50;99.90;;;;;;4812046;29;20208;-58
2022/06/13 13:10:32;;;;;;;3.00;1.33;;;22.30;99.90;;;;;;4810214;29;20313;-58
2022/06/13 13:13:33;;;;;;;3.47;1.27;;;22.50;99.90;;;;;;4814186;29;20244;-58
2022/06/13 13:16:07;;;;;;;4.00;1.40;;;22.50;99.90;;;;;;4806709;29;20220;-58
2022/06/13 13:18:47;;;;;;;1.53;1.10;;;22.50;99.90;;;;;;4806205;29;20284;-59
2022/06/13 13:21:24;;;;;;;3.17;1.30;;;22.80;99.90;;;;;;4792472;29;20284;-59
2022/06/13 13:24:07;;;;;;;1.20;1.10;;;23.00;99.90;;;;;;4794008;29;20256;-59
2022/06/13 13:26:47;;;;;;;3.20;1.20;;;22.90;99.90;;;;;;4804651;29;20659;-59
2022/06/13 13:29:26;;;;;;;4.13;1.10;;;22.90;99.90;;;;;;4809899;29;20217;-58
2022/06/13 13:32:03;;;;;;;2.30;1.07;;;22.90;99.90;;;;;;4805156;29;21907;-59
2022/06/13 13:34:39;;;;;;;1.17;1.00;;;23.00;99.90;;;;;;4808750;29;20211;-58
2022/06/13 13:37:27;;;;;;;1.27;1.00;;;23.00;99.90;;;;;;4809640;29;20262;-58
2022/06/13 13:40:03;;;;;;;5.50;1.50;;;22.90;99.90;;;;;;4809698;29;20287;-58
2022/06/13 13:42:41;;;;;;;1.77;1.00;;;22.90;99.90;;;;;;4800371;29;20262;-58
2022/06/13 13:45:30;;;;;;;1.20;1.10;;;23.00;99.90;;;;;;4806936;29;22308;-58